createdAt,value
2019-01-04T00:01:48.089Z,9.37
2019-01-04T00:04:25.179Z,11.97
2019-01-04T00:06:55.359Z,9.47
2019-01-04T00:09:25.385Z,10.88
2019-01-04T00:11:55.451Z,11.60
2019-01-04T00:14:25.608Z,10.43
2019-01-04T00:16:55.718Z,12.17
2019-01-04T00:19:26.295Z,11.35
2019-01-04T00:21:56.369Z,10.97
2019-01-04T00:24:26.367Z,7.70
2019-01-04T00:26:56.467Z,10.00
2019-01-04T00:29:26.660Z,12.90
2019-01-04T00:31:57.965Z,11.70
2019-01-04T00:34:28.089Z,10.93
2019-01-04T00:36:58.167Z,11.77
2019-01-04T00:39:28.774Z,9.73
2019-01-04T00:41:58.858Z,9.47
2019-01-04T00:44:28.991Z,11.00
2019-01-04T00:46:59.174Z,13.13
2019-01-04T00:49:29.277Z,10.03
2019-01-04T00:51:59.459Z,10.03
2019-01-04T00:54:29.521Z,10.47
2019-01-04T00:57:34.063Z,9.83
2019-01-04T01:01:27.143Z,11.40
2019-01-04T01:05:06.144Z,11.18
2019-01-04T01:08:32.878Z,9.17
2019-01-04T01:11:44.268Z,7.35
2019-01-04T01:15:10.472Z,9.40
2019-01-04T01:18:34.144Z,9.40
2019-01-04T01:22:18.459Z,10.17
2019-01-04T01:25:46.772Z,8.97
2019-01-04T01:29:23.172Z,7.70
2019-01-04T01:32:46.071Z,10.30
2019-01-04T01:36:06.615Z,11.50
2019-01-04T01:39:35.724Z,12.23
2019-01-04T01:43:25.802Z,11.20
2019-01-04T01:46:37.586Z,10.43
2019-01-04T01:50:02.330Z,10.33
2019-01-04T01:52:41.560Z,10.68
2019-01-04T01:55:11.663Z,10.53
2019-01-04T01:57:41.736Z,8.48
2019-01-04T02:00:11.897Z,11.67
2019-01-04T02:02:41.993Z,11.43
2019-01-04T02:05:12.009Z,10.73
2019-01-04T02:07:42.783Z,12.03
2019-01-04T02:10:13.008Z,10.90
2019-01-04T02:12:43.028Z,10.50
2019-01-04T02:15:13.494Z,12.30
2019-01-04T02:17:43.576Z,11.40
2019-01-04T02:20:13.704Z,9.93
2019-01-04T02:22:43.678Z,12.20
2019-01-04T02:25:14.027Z,10.10
2019-01-04T02:27:44.184Z,12.43
2019-01-04T02:30:14.297Z,9.90
2019-01-04T02:32:44.389Z,11.28
2019-01-04T02:35:14.412Z,12.70
2019-01-04T02:37:44.411Z,11.03
2019-01-04T02:40:14.414Z,10.80
2019-01-04T02:42:44.366Z,10.50
2019-01-04T02:45:14.553Z,12.10
2019-01-04T02:47:44.599Z,11.10
2019-01-04T02:50:14.535Z,12.20
2019-01-04T02:52:44.474Z,10.80
2019-01-04T02:55:14.515Z,12.90
2019-01-04T02:57:44.606Z,8.93
2019-01-04T03:00:14.596Z,11.20
2019-01-04T03:02:44.623Z,8.53
2019-01-04T03:05:14.786Z,11.03
2019-01-04T03:07:44.706Z,10.70
2019-01-04T03:10:14.714Z,12.10
2019-01-04T03:12:44.757Z,11.20
2019-01-04T03:15:14.989Z,11.17
2019-01-04T03:17:45.972Z,12.70
2019-01-04T03:20:16.074Z,10.60
2019-01-04T03:22:46.047Z,10.97
2019-01-04T03:25:16.445Z,9.90
2019-01-04T03:27:46.555Z,10.93
2019-01-04T03:30:16.738Z,9.13
2019-01-04T03:32:46.856Z,8.67
2019-01-04T03:35:16.993Z,9.50
2019-01-04T03:37:46.932Z,10.10
2019-01-04T03:40:16.980Z,9.57
2019-01-04T03:42:47.077Z,11.53
2019-01-04T03:45:17.249Z,10.93
2019-01-04T03:47:47.305Z,10.73
2019-01-04T03:50:17.434Z,10.47
2019-01-04T03:52:47.633Z,11.03
2019-01-04T03:55:18.463Z,11.83
2019-01-04T03:57:48.522Z,9.60
2019-01-04T04:00:18.801Z,11.90
2019-01-04T04:02:48.894Z,11.73
2019-01-04T04:05:18.924Z,10.17
2019-01-04T04:07:48.938Z,11.27
2019-01-04T04:10:18.991Z,10.30
2019-01-04T04:12:48.988Z,10.13
2019-01-04T04:15:19.004Z,10.80
2019-01-04T04:17:49.046Z,9.90
2019-01-04T04:20:19.163Z,11.70
2019-01-04T04:22:49.104Z,10.10
2019-01-04T04:25:19.141Z,11.57
2019-01-04T04:27:49.255Z,10.40
2019-01-04T04:30:19.370Z,10.80
2019-01-04T04:32:49.432Z,11.60
2019-01-04T04:35:19.577Z,9.50
2019-01-04T04:37:49.634Z,9.10
2019-01-04T04:40:19.553Z,12.07
2019-01-04T04:42:49.647Z,7.23
2019-01-04T04:45:19.677Z,12.33
2019-01-04T04:47:49.641Z,13.07
2019-01-04T04:50:19.657Z,12.80
2019-01-04T04:52:49.703Z,12.27
2019-01-04T04:55:19.822Z,10.70
2019-01-04T04:57:49.887Z,10.68
2019-01-04T05:00:19.923Z,11.63
2019-01-04T05:02:49.995Z,12.77
2019-01-04T05:05:20.211Z,11.83
2019-01-04T05:07:50.222Z,14.90
2019-01-04T05:10:20.434Z,9.30
2019-01-04T05:12:50.573Z,12.00
2019-01-04T05:15:20.528Z,6.83
2019-01-04T05:17:50.451Z,13.77
2019-01-04T05:20:20.576Z,13.57
2019-01-04T05:22:50.550Z,12.27
2019-01-04T05:25:20.661Z,11.47
2019-01-04T05:27:50.770Z,11.40
2019-01-04T05:30:20.804Z,11.50
2019-01-04T05:32:50.808Z,11.90
2019-01-04T05:35:20.770Z,11.63
2019-01-04T05:37:50.793Z,10.13
2019-01-04T05:40:20.944Z,10.57
2019-01-04T05:42:51.118Z,11.83
2019-01-04T05:45:21.155Z,9.60
2019-01-04T05:47:51.160Z,11.87
2019-01-04T05:50:21.438Z,11.50
2019-01-04T05:52:51.467Z,11.73
2019-01-04T05:55:21.398Z,12.97
2019-01-04T05:57:51.406Z,12.60
2019-01-04T06:00:21.428Z,10.43
2019-01-04T06:02:51.454Z,11.77
2019-01-04T06:05:21.504Z,11.60
2019-01-04T06:07:51.463Z,11.20
2019-01-04T06:10:21.443Z,12.17
2019-01-04T06:12:51.477Z,10.60
2019-01-04T06:15:21.406Z,11.47
2019-01-04T06:17:51.352Z,9.10
2019-01-04T06:20:21.357Z,10.83
2019-01-04T06:22:51.400Z,12.67
2019-01-04T06:25:21.633Z,10.33
2019-01-04T06:27:51.609Z,11.40
2019-01-04T06:30:21.673Z,11.20
2019-01-04T06:32:51.763Z,13.50
2019-01-04T06:35:21.675Z,11.40
2019-01-04T06:37:51.595Z,13.00
2019-01-04T06:40:21.527Z,12.60
2019-01-04T06:42:51.541Z,10.87
2019-01-04T06:45:21.532Z,11.77
2019-01-04T06:47:51.626Z,13.60
2019-01-04T06:50:21.658Z,10.37
2019-01-04T06:52:51.680Z,12.87
2019-01-04T06:56:07.290Z,9.90
2019-01-04T06:58:37.416Z,12.53
2019-01-04T07:01:07.474Z,14.33
2019-01-04T07:03:37.532Z,12.90
2019-01-04T07:06:07.587Z,10.20
2019-01-04T07:08:37.741Z,12.45
2019-01-04T07:11:07.937Z,10.30
2019-01-04T07:13:37.998Z,13.73
2019-01-04T07:16:08.119Z,13.07
2019-01-04T07:18:38.250Z,8.27
2019-01-04T07:21:08.348Z,11.40
2019-01-04T07:23:38.313Z,12.73
2019-01-04T07:26:08.243Z,10.80
2019-01-04T07:28:38.254Z,12.07
2019-01-04T07:31:08.586Z,11.93
2019-01-04T07:33:38.685Z,9.83
2019-01-04T07:36:08.898Z,12.07
2019-01-04T07:38:38.909Z,12.10
2019-01-04T07:41:08.937Z,11.80
2019-01-04T07:43:38.885Z,12.17
2019-01-04T07:46:08.830Z,12.63
2019-01-04T07:48:38.835Z,13.57
2019-01-04T07:51:08.766Z,10.77
2019-01-04T07:53:38.731Z,12.98
2019-01-04T07:56:08.654Z,13.55
2019-01-04T07:58:38.785Z,13.10
2019-01-04T08:01:09.762Z,11.22
2019-01-04T08:03:39.789Z,11.75
2019-01-04T08:06:09.896Z,12.60
2019-01-04T08:08:39.855Z,13.98
2019-01-04T08:11:09.940Z,12.00
2019-01-04T08:13:40.003Z,15.10
2019-01-04T08:16:09.999Z,12.17
2019-01-04T08:18:39.962Z,15.90
2019-01-04T08:21:09.967Z,13.65
2019-01-04T08:23:39.982Z,12.90
2019-01-04T08:26:11.149Z,12.00
2019-01-04T08:28:41.180Z,13.00
2019-01-04T08:31:11.282Z,13.33
2019-01-04T08:33:41.391Z,14.83
2019-01-04T08:36:11.621Z,12.63
2019-01-04T08:38:41.589Z,11.90
2019-01-04T08:41:11.539Z,13.57
2019-01-04T08:43:41.571Z,15.70
2019-01-04T08:46:11.651Z,14.60
2019-01-04T08:48:41.726Z,12.85
2019-01-04T08:51:11.647Z,14.33
2019-01-04T08:53:59.392Z,15.93
2019-01-04T08:56:33.913Z,16.94
2019-01-04T08:59:04.143Z,14.17
2019-01-04T09:01:34.203Z,13.00
2019-01-04T09:04:04.387Z,13.00
2019-01-04T09:06:35.965Z,13.05
2019-01-04T09:09:08.339Z,16.13
2019-01-04T09:11:38.406Z,15.45
2019-01-04T09:14:08.405Z,15.48
2019-01-04T09:16:39.441Z,15.23
2019-01-04T09:19:09.474Z,14.63
2019-01-04T09:21:39.565Z,13.98
2019-01-04T09:24:09.753Z,14.33
2019-01-04T09:26:39.865Z,15.27
2019-01-04T09:29:09.992Z,13.30
2019-01-04T09:31:40.069Z,17.10
2019-01-04T09:34:10.209Z,16.93
2019-01-04T09:36:40.143Z,18.53
2019-01-04T09:39:10.237Z,18.57
2019-01-04T09:41:43.611Z,16.43
2019-01-04T09:44:13.658Z,15.95
2019-01-04T09:46:43.711Z,19.07
2019-01-04T09:49:13.745Z,16.27
2019-01-04T09:51:43.861Z,18.82
2019-01-04T09:54:14.734Z,21.57
2019-01-04T09:56:44.692Z,19.27
2019-01-04T09:59:14.690Z,17.10
2019-01-04T10:01:44.745Z,17.82
2019-01-04T10:04:14.881Z,20.68
2019-01-04T10:06:44.994Z,18.20
2019-01-04T10:09:14.930Z,17.40
2019-01-04T10:11:44.964Z,16.00
2019-01-04T10:14:14.916Z,16.03
2019-01-04T10:16:44.992Z,15.03
2019-01-04T10:19:15.420Z,16.77
2019-01-04T10:21:45.516Z,15.20
2019-01-04T10:24:15.590Z,13.60
2019-01-04T10:26:46.550Z,16.70
2019-01-04T10:29:16.511Z,15.00
2019-01-04T10:31:46.630Z,14.60
2019-01-04T10:34:16.664Z,14.67
2019-01-04T10:36:46.709Z,15.28
2019-01-04T10:39:17.536Z,15.43
2019-01-04T10:41:47.600Z,13.45
2019-01-04T10:44:18.425Z,12.90
2019-01-04T10:46:49.606Z,14.97
2019-01-04T10:49:19.542Z,12.37
2019-01-04T10:51:49.511Z,14.57
2019-01-04T10:54:19.724Z,13.60
2019-01-04T10:56:49.686Z,17.40
2019-01-04T10:59:19.692Z,12.37
2019-01-04T11:01:49.764Z,14.30
2019-01-04T11:04:22.735Z,11.20
2019-01-04T11:06:52.848Z,10.87
2019-01-04T11:09:23.070Z,12.17
2019-01-04T11:11:53.974Z,12.90
2019-01-04T11:14:23.906Z,12.53
2019-01-04T11:16:54.066Z,9.77
2019-01-04T11:19:24.081Z,11.60
2019-01-04T11:22:48.797Z,10.17
2019-01-04T11:25:59.172Z,12.20
2019-01-04T11:28:53.698Z,10.32
2019-01-04T11:32:11.362Z,8.60
2019-01-04T11:35:41.546Z,12.50
2019-01-04T11:39:00.133Z,11.50
2019-01-04T11:42:22.058Z,11.55
2019-01-04T11:45:41.305Z,10.27
2019-01-04T11:49:05.566Z,9.43
2019-01-04T11:52:30.993Z,8.97
2019-01-04T11:54:59.425Z,9.77
2019-01-04T11:57:29.474Z,9.78
2019-01-04T11:59:59.503Z,10.30
2019-01-04T12:02:29.538Z,10.20
2019-01-04T12:05:01.794Z,9.90
2019-01-04T12:07:32.056Z,7.70
2019-01-04T12:10:02.144Z,8.68
2019-01-04T12:12:32.268Z,7.85
2019-01-04T12:15:02.284Z,6.93
2019-01-04T12:17:32.401Z,11.97
2019-01-04T12:20:02.471Z,8.40
2019-01-04T12:22:32.451Z,8.13
2019-01-04T12:25:02.381Z,9.60
2019-01-04T12:27:32.427Z,9.93
2019-01-04T12:30:02.464Z,9.33
2019-01-04T12:32:32.452Z,7.78
2019-01-04T12:35:02.570Z,9.67
2019-01-04T12:37:32.710Z,10.53
2019-01-04T12:40:02.793Z,8.70
2019-01-04T12:42:32.726Z,9.30
2019-01-04T12:45:02.846Z,9.33
2019-01-04T12:47:32.780Z,11.37
2019-01-04T12:50:02.955Z,10.63
2019-01-04T12:52:32.947Z,12.07
2019-01-04T12:55:03.089Z,8.80
2019-01-04T12:57:33.075Z,10.87
2019-01-04T13:00:03.225Z,10.80
2019-01-04T13:02:33.214Z,10.83
2019-01-04T13:05:03.362Z,10.73
2019-01-04T13:07:33.423Z,10.43
2019-01-04T13:10:03.517Z,9.83
2019-01-04T13:12:33.607Z,9.80
2019-01-04T13:15:03.968Z,9.77
2019-01-04T13:17:33.981Z,9.07
2019-01-04T13:20:04.109Z,11.03
2019-01-04T13:22:34.271Z,11.30
2019-01-04T13:25:04.499Z,11.87
2019-01-04T13:27:34.509Z,12.57
2019-01-04T13:30:05.438Z,13.03
2019-01-04T13:32:35.539Z,12.80
2019-01-04T13:35:05.797Z,12.60
2019-01-04T13:37:35.879Z,13.13
2019-01-04T13:40:06.557Z,13.00
2019-01-04T13:42:36.593Z,13.30
2019-01-04T13:45:07.456Z,14.00
2019-01-04T13:47:37.728Z,13.73
2019-01-04T13:50:08.145Z,11.75
2019-01-04T13:52:40.404Z,13.67
2019-01-04T13:55:10.407Z,14.07
2019-01-04T13:57:40.416Z,15.38
2019-01-04T14:00:11.198Z,13.17
2019-01-04T14:02:41.707Z,14.10
2019-01-04T14:05:12.505Z,14.67
2019-01-04T14:07:42.467Z,14.70
2019-01-04T14:10:12.603Z,15.03
2019-01-04T14:12:43.749Z,13.65
2019-01-04T14:15:14.109Z,13.10
2019-01-04T14:17:44.181Z,15.70
2019-01-04T14:20:14.312Z,13.60
2019-01-04T14:22:44.309Z,12.60
2019-01-04T14:25:14.544Z,12.50
2019-01-04T14:27:44.586Z,14.80
2019-01-04T14:30:14.742Z,13.70
2019-01-04T14:32:44.890Z,14.53
2019-01-04T14:35:15.072Z,11.57
2019-01-04T14:37:45.168Z,17.60
2019-01-04T14:40:15.360Z,16.80
2019-01-04T14:42:45.299Z,13.97
2019-01-04T14:45:15.453Z,13.70
2019-01-04T14:47:45.473Z,13.60
2019-01-04T14:50:16.262Z,15.27
2019-01-04T14:52:46.178Z,12.40
2019-01-04T14:55:16.254Z,10.93
2019-01-04T14:57:46.281Z,12.40
2019-01-04T15:00:16.365Z,11.00
2019-01-04T15:02:46.482Z,9.73
2019-01-04T15:05:16.593Z,10.70
2019-01-04T15:07:47.067Z,13.48
2019-01-04T15:10:17.470Z,10.67
2019-01-04T15:12:47.699Z,9.97
2019-01-04T15:15:18.873Z,12.35
2019-01-04T15:17:48.895Z,9.40
2019-01-04T15:20:19.182Z,8.80
2019-01-04T15:22:49.245Z,10.80
2019-01-04T15:25:19.192Z,9.07
2019-01-04T15:27:49.522Z,11.97
2019-01-04T15:30:19.744Z,9.27
2019-01-04T15:32:49.771Z,11.00
2019-01-04T15:35:19.767Z,9.63
2019-01-04T15:37:50.170Z,10.70
2019-01-04T15:40:20.354Z,8.00
2019-01-04T15:42:50.482Z,9.10
2019-01-04T15:45:20.707Z,8.20
2019-01-04T15:47:51.014Z,7.78
2019-01-04T15:50:21.181Z,8.63
2019-01-04T15:52:51.250Z,11.00
2019-01-04T15:55:21.290Z,9.90
2019-01-04T15:57:51.316Z,8.45
2019-01-04T16:00:21.452Z,9.63
2019-01-04T16:02:51.535Z,8.60
2019-01-04T16:05:22.649Z,9.67
2019-01-04T16:07:52.884Z,8.70
2019-01-04T16:10:23.172Z,8.30
2019-01-04T16:12:53.322Z,7.50
2019-01-04T16:15:23.336Z,8.20
2019-01-04T16:17:53.538Z,8.60
2019-01-04T16:20:23.627Z,8.30
2019-01-04T16:22:53.683Z,7.90
2019-01-04T16:25:23.652Z,7.03
2019-01-04T16:27:53.587Z,7.58
2019-01-04T16:30:23.830Z,8.85
2019-01-04T16:32:54.449Z,6.83
2019-01-04T16:35:24.695Z,7.90
2019-01-04T16:37:54.882Z,6.00
2019-01-04T16:40:25.042Z,7.83
2019-01-04T16:42:55.208Z,6.60
2019-01-04T16:45:25.278Z,7.75
2019-01-04T16:47:58.681Z,7.47
2019-01-04T16:50:28.996Z,6.67
2019-01-04T16:52:59.508Z,6.80
2019-01-04T16:55:29.619Z,7.13
2019-01-04T16:57:59.968Z,4.95
2019-01-04T17:00:30.001Z,5.85
2019-01-04T17:03:00.225Z,6.62
2019-01-04T17:05:30.314Z,4.33
2019-01-04T17:08:00.382Z,5.20
2019-01-04T17:10:30.350Z,4.05
2019-01-04T17:13:01.074Z,4.50
2019-01-04T17:15:31.161Z,5.90
2019-01-04T17:18:01.782Z,4.25
2019-01-04T17:20:31.854Z,4.37
2019-01-04T17:23:01.955Z,2.97
2019-01-04T17:25:31.964Z,3.60
2019-01-04T17:28:01.962Z,3.77
2019-01-04T17:30:32.159Z,2.90
2019-01-04T17:33:02.228Z,4.67
2019-01-04T17:35:32.289Z,13.30
2019-01-04T17:38:02.376Z,4.33
2019-01-04T17:40:32.400Z,4.60
2019-01-04T17:43:02.613Z,3.22
2019-01-04T17:45:32.607Z,4.62
2019-01-04T17:48:02.769Z,4.47
2019-01-04T17:50:32.782Z,4.43
2019-01-04T17:53:02.792Z,4.20
2019-01-04T17:55:32.836Z,4.62
2019-01-04T17:58:02.839Z,4.20
2019-01-04T18:00:33.006Z,2.60
2019-01-04T18:03:03.292Z,4.30
2019-01-04T18:05:33.355Z,5.03
2019-01-04T18:08:03.423Z,4.53
2019-01-04T18:10:33.503Z,3.60
2019-01-04T18:13:03.956Z,4.70
2019-01-04T18:15:35.169Z,3.27
2019-01-04T18:18:05.233Z,3.90
2019-01-04T18:20:35.461Z,3.52
2019-01-04T18:23:05.631Z,4.57
2019-01-04T18:25:35.621Z,4.30
2019-01-04T18:28:05.831Z,3.60
2019-01-04T18:30:36.010Z,5.67
2019-01-04T18:33:06.106Z,4.60
2019-01-04T18:35:36.182Z,5.03
2019-01-04T18:38:06.231Z,4.10
2019-01-04T18:40:36.405Z,3.98
2019-01-04T18:43:06.595Z,4.27
2019-01-04T18:45:36.758Z,3.65
2019-01-04T18:48:06.881Z,4.70
2019-01-04T18:50:37.130Z,5.33
2019-01-04T18:53:07.470Z,5.65
2019-01-04T18:55:37.482Z,4.87
2019-01-04T18:58:07.625Z,4.87
2019-01-04T19:00:37.859Z,4.13
2019-01-04T19:03:07.957Z,5.10
2019-01-04T19:05:38.050Z,5.17
2019-01-04T19:08:08.209Z,4.50
2019-01-04T19:10:38.406Z,3.17
2019-01-04T19:13:08.597Z,5.58
2019-01-04T19:15:38.660Z,5.10
2019-01-04T19:18:08.783Z,5.30
2019-01-04T19:20:39.013Z,5.53
2019-01-04T19:23:08.948Z,4.73
2019-01-04T19:25:39.855Z,5.77
2019-01-04T19:28:10.012Z,5.50
2019-01-04T19:30:40.238Z,5.10
2019-01-04T19:33:10.383Z,4.67
2019-01-04T19:35:40.558Z,5.10
2019-01-04T19:38:10.741Z,4.90
2019-01-04T19:40:40.758Z,5.60
2019-01-04T19:43:10.871Z,7.60
2019-01-04T19:45:41.113Z,6.00
2019-01-04T19:48:11.108Z,6.33
2019-01-04T19:50:41.263Z,7.73
2019-01-04T19:53:11.334Z,6.13
2019-01-04T19:55:42.011Z,6.50
2019-01-04T19:58:12.075Z,6.10
2019-01-04T20:00:42.204Z,7.30
2019-01-04T20:03:12.604Z,5.47
2019-01-04T20:06:53.657Z,4.22
2019-01-04T20:10:24.417Z,5.80
2019-01-04T20:14:38.334Z,6.47
2019-01-04T20:17:30.182Z,6.87
2019-01-04T20:20:28.731Z,5.93
2019-01-04T20:23:17.875Z,5.00
2019-01-04T20:26:07.031Z,8.50
2019-01-04T20:28:54.484Z,6.40
2019-01-04T20:31:51.650Z,7.00
2019-01-04T20:34:46.712Z,4.97
2019-01-04T20:37:33.593Z,6.55
2019-01-04T20:40:35.485Z,5.60
2019-01-04T20:43:33.480Z,5.10
2019-01-04T20:46:20.816Z,5.50
2019-01-04T20:49:14.714Z,8.65
2019-01-04T20:51:56.930Z,5.60
2019-01-04T20:54:58.036Z,6.42
2019-01-04T20:58:01.502Z,7.92
2019-01-04T21:00:56.611Z,7.70
2019-01-04T21:04:00.348Z,9.30
2019-01-04T21:06:54.272Z,7.72
2019-01-04T21:09:41.817Z,7.85
2019-01-04T21:12:29.449Z,7.60
2019-01-04T21:15:18.389Z,6.00
2019-01-04T21:18:19.316Z,8.70
2019-01-04T21:21:06.962Z,9.60
2019-01-04T21:23:46.647Z,8.70
2019-01-04T21:26:34.132Z,6.80
2019-01-04T21:29:32.166Z,7.50
2019-01-04T21:32:23.613Z,8.38
2019-01-04T21:35:11.058Z,8.13
2019-01-04T21:37:52.575Z,6.77
2019-01-04T21:40:40.041Z,9.32
2019-01-04T21:43:28.129Z,10.27
2019-01-04T21:46:31.448Z,8.90
2019-01-04T21:49:35.116Z,8.50
2019-01-04T21:52:16.224Z,10.40
2019-01-04T21:55:04.739Z,9.30
2019-01-04T21:58:10.055Z,8.17
2019-01-04T22:00:53.631Z,9.17
2019-01-04T22:03:51.428Z,12.60
2019-01-04T22:06:38.753Z,12.63
2019-01-04T22:09:26.238Z,11.50
2019-01-04T22:12:19.613Z,13.23
2019-01-04T22:15:17.367Z,8.93
2019-01-04T22:18:04.978Z,9.70
2019-01-04T22:20:56.702Z,13.90
2019-01-04T22:24:01.143Z,11.90
2019-01-04T22:26:53.619Z,10.03
2019-01-04T22:29:42.621Z,13.18
2019-01-04T22:32:34.187Z,10.53
2019-01-04T22:35:38.153Z,12.10
2019-01-04T22:38:32.737Z,11.60
2019-01-04T22:41:27.359Z,13.75
2019-01-04T22:44:21.857Z,8.20
2019-01-04T22:47:11.494Z,11.65
2019-01-04T22:50:10.140Z,9.78
2019-01-04T22:52:59.044Z,10.00
2019-01-04T22:55:56.575Z,11.63
2019-01-04T22:58:43.938Z,9.63
2019-01-04T23:01:31.218Z,12.33
2019-01-04T23:04:17.390Z,13.18
2019-01-04T23:07:04.754Z,13.37
2019-01-04T23:09:53.752Z,11.90
2019-01-04T23:12:41.322Z,11.73
2019-01-04T23:15:35.949Z,10.68
2019-01-04T23:18:23.297Z,12.43
2019-01-04T23:21:17.948Z,12.47
2019-01-04T23:24:10.264Z,11.67
2019-01-04T23:27:08.249Z,11.63
2019-01-04T23:30:03.161Z,15.20
2019-01-04T23:33:04.135Z,13.53
2019-01-04T23:35:52.258Z,14.20
2019-01-04T23:38:44.217Z,14.00
2019-01-04T23:41:31.839Z,10.37
2019-01-04T23:44:19.198Z,13.67
2019-01-04T23:47:08.365Z,9.77
2019-01-04T23:49:51.351Z,16.53
2019-01-04T23:52:47.788Z,12.87
2019-01-04T23:55:29.599Z,12.60
2019-01-04T23:58:22.989Z,18.02
